createdAt,value
2023-04-02T00:00:27.160Z,185.25
2023-04-02T00:01:27.253Z,183.63
2023-04-02T00:02:27.241Z,186.27
2023-04-02T00:03:27.172Z,185.27
2023-04-02T00:04:27.068Z,184.07
2023-04-02T00:05:27.049Z,186.43
2023-04-02T00:06:27.002Z,186.38
2023-04-02T00:07:26.988Z,185.41
2023-04-02T00:08:27.004Z,185.61
2023-04-02T00:09:26.893Z,185.86
2023-04-02T00:10:26.810Z,185.92
2023-04-02T00:11:26.740Z,186.57
2023-04-02T00:12:26.651Z,186.78
2023-04-02T00:13:26.605Z,186.02
2023-04-02T00:14:26.520Z,186.69
2023-04-02T00:15:26.441Z,185.11
2023-04-02T00:16:26.452Z,185.29
2023-04-02T00:17:26.285Z,185.28
2023-04-02T00:18:26.268Z,185.23
2023-04-02T00:19:26.235Z,184.96
2023-04-02T00:20:26.121Z,183.08
2023-04-02T00:21:26.113Z,185.94
2023-04-02T00:22:26.104Z,184.08
2023-04-02T00:23:26.081Z,183.47
2023-04-02T00:24:26.051Z,185.68
2023-04-02T00:25:26.012Z,184.02
2023-04-02T00:26:25.986Z,184.47
2023-04-02T00:27:26.002Z,183.35
2023-04-02T00:28:25.981Z,182.71
2023-04-02T00:29:25.965Z,183.26
2023-04-02T00:30:25.986Z,181.42
2023-04-02T00:31:26.113Z,179.87
2023-04-02T00:32:26.008Z,186.66
2023-04-02T00:33:25.886Z,184.31
2023-04-02T00:34:25.884Z,182.24
2023-04-02T00:35:25.877Z,185.39
2023-04-02T00:36:25.869Z,183.21
2023-04-02T00:37:25.873Z,183.34
2023-04-02T00:38:25.880Z,184.50
2023-04-02T00:39:25.863Z,184.39
2023-04-02T00:40:25.848Z,187.73
2023-04-02T00:41:25.855Z,185.59
2023-04-02T00:42:25.857Z,182.84
2023-04-02T00:43:25.844Z,184.14
2023-04-02T00:44:25.864Z,185.27
2023-04-02T00:45:25.890Z,184.88
2023-04-02T00:46:25.951Z,186.79
2023-04-02T00:47:25.838Z,184.69
2023-04-02T00:48:25.830Z,189.08
2023-04-02T00:49:25.848Z,185.79
2023-04-02T00:50:25.830Z,187.42
2023-04-02T00:51:25.816Z,186.14
2023-04-02T00:52:25.814Z,188.04
2023-04-02T00:53:25.838Z,185.22
2023-04-02T00:54:25.796Z,188.75
2023-04-02T00:55:25.766Z,187.70
2023-04-02T00:56:25.772Z,187.71
2023-04-02T00:57:25.844Z,188.20
2023-04-02T00:58:25.752Z,186.89
2023-04-02T00:59:25.760Z,187.17
2023-04-02T01:00:25.747Z,184.79
2023-04-02T01:01:25.769Z,186.11
2023-04-02T01:02:25.794Z,188.66
2023-04-02T01:03:25.790Z,187.20
2023-04-02T01:04:25.722Z,185.49
2023-04-02T01:05:25.708Z,188.18
2023-04-02T01:06:25.666Z,186.19
2023-04-02T01:07:25.658Z,189.11
2023-04-02T01:08:25.583Z,189.32
2023-04-02T01:09:25.504Z,189.39
2023-04-02T01:10:25.434Z,189.26
2023-04-02T01:11:25.366Z,188.97
2023-04-02T01:12:25.303Z,188.30
2023-04-02T01:13:25.213Z,185.63
2023-04-02T01:14:25.182Z,186.23
2023-04-02T01:15:25.080Z,187.15
2023-04-02T01:16:25.079Z,187.31
2023-04-02T01:17:25.122Z,188.79
2023-04-02T01:18:25.090Z,187.75
2023-04-02T01:19:25.125Z,187.48
2023-04-02T01:20:25.092Z,188.15
2023-04-02T01:21:25.127Z,188.84
2023-04-02T01:22:25.032Z,183.98
2023-04-02T01:23:25.010Z,188.33
2023-04-02T01:24:25.016Z,185.43
2023-04-02T01:25:25.011Z,185.96
2023-04-02T01:26:24.995Z,187.21
2023-04-02T01:27:24.975Z,185.47
2023-04-02T01:28:24.968Z,185.25
2023-04-02T01:29:24.961Z,185.49
2023-04-02T01:30:24.942Z,186.47
2023-04-02T01:31:24.946Z,183.62
2023-04-02T01:32:24.971Z,183.60
2023-04-02T01:33:24.916Z,186.45
2023-04-02T01:34:25.994Z,184.06
2023-04-02T01:35:24.917Z,184.68
2023-04-02T01:36:24.926Z,185.73
2023-04-02T01:37:24.936Z,184.28
2023-04-02T01:38:24.936Z,186.20
2023-04-02T01:39:24.968Z,184.90
2023-04-02T01:40:24.918Z,185.42
2023-04-02T01:41:24.921Z,184.62
2023-04-02T01:42:24.907Z,185.58
2023-04-02T01:43:24.908Z,183.26
2023-04-02T01:44:24.993Z,183.85
2023-04-02T01:45:24.959Z,186.13
2023-04-02T01:46:24.970Z,182.21
2023-04-02T01:47:24.949Z,186.46
2023-04-02T01:48:24.941Z,187.29
2023-04-02T01:49:24.892Z,184.71
2023-04-02T01:50:24.896Z,185.55
2023-04-02T01:51:24.888Z,187.37
2023-04-02T01:52:24.888Z,186.53
2023-04-02T01:53:24.914Z,185.36
2023-04-02T01:54:24.898Z,187.06
2023-04-02T01:55:24.900Z,184.39
2023-04-02T01:56:24.904Z,185.32
2023-04-02T01:57:24.940Z,185.34
2023-04-02T01:58:24.907Z,187.09
2023-04-02T01:59:24.904Z,186.45
2023-04-02T02:00:24.915Z,183.72
2023-04-02T02:01:24.949Z,185.30
2023-04-02T02:02:24.940Z,186.08
2023-04-02T02:03:24.884Z,185.09
2023-04-02T02:04:24.874Z,184.35
2023-04-02T02:05:24.854Z,183.80
2023-04-02T02:06:24.819Z,184.57
2023-04-02T02:07:24.783Z,185.04
2023-04-02T02:08:24.782Z,183.16
2023-04-02T02:09:24.763Z,183.58
2023-04-02T02:10:24.743Z,185.10
2023-04-02T02:11:24.728Z,184.20
2023-04-02T02:12:24.728Z,185.12
2023-04-02T02:13:24.722Z,183.46
2023-04-02T02:14:24.735Z,184.13
2023-04-02T02:15:24.709Z,182.75
2023-04-02T02:16:24.788Z,181.65
2023-04-02T02:17:24.711Z,183.44
2023-04-02T02:18:24.666Z,182.44
2023-04-02T02:19:24.671Z,181.59
2023-04-02T02:20:24.650Z,181.04
2023-04-02T02:21:24.650Z,183.30
2023-04-02T02:22:24.637Z,182.16
2023-04-02T02:23:24.640Z,183.80
2023-04-02T02:24:24.628Z,184.10
2023-04-02T02:25:24.618Z,181.69
2023-04-02T02:26:24.623Z,181.00
2023-04-02T02:27:24.619Z,183.57
2023-04-02T02:28:24.617Z,183.97
2023-04-02T02:29:24.609Z,181.01
2023-04-02T02:30:24.615Z,182.52
2023-04-02T02:31:24.610Z,182.29
2023-04-02T02:32:24.607Z,185.10
2023-04-02T02:33:24.593Z,185.34
2023-04-02T02:34:24.565Z,182.70
2023-04-02T02:35:24.554Z,181.41
2023-04-02T02:36:24.562Z,181.79
2023-04-02T02:37:24.528Z,182.28
2023-04-02T02:38:24.533Z,179.04
2023-04-02T02:39:24.504Z,168.27
2023-04-02T02:40:24.497Z,167.96
2023-04-02T02:41:24.462Z,162.86
2023-04-02T02:42:24.392Z,158.66
2023-04-02T02:43:24.307Z,151.94
2023-04-02T02:44:24.261Z,145.76
2023-04-02T02:45:24.179Z,146.54
2023-04-02T02:46:24.161Z,137.28
2023-04-02T02:47:24.059Z,133.35
2023-04-02T02:48:24.053Z,124.57
2023-04-02T02:49:23.917Z,123.60
2023-04-02T02:50:23.875Z,123.99
2023-04-02T02:51:23.816Z,114.77
2023-04-02T02:52:23.736Z,107.15
2023-04-02T02:53:23.662Z,103.42
2023-04-02T02:54:23.599Z,102.15
2023-04-02T02:55:23.531Z,96.75
2023-04-02T02:56:23.472Z,93.53
2023-04-02T02:57:23.572Z,92.68
2023-04-02T02:58:23.370Z,87.78
2023-04-02T02:59:23.266Z,87.78
2023-04-02T03:00:23.210Z,80.40
2023-04-02T03:01:23.214Z,78.30
2023-04-02T03:02:23.146Z,74.03
2023-04-02T03:03:23.243Z,70.46
2023-04-02T03:04:23.067Z,69.08
2023-04-02T03:05:22.899Z,64.68
2023-04-02T03:06:22.829Z,61.32
2023-04-02T03:07:22.768Z,60.18
2023-04-02T03:08:22.718Z,55.60
2023-04-02T03:09:22.682Z,57.05
2023-04-02T03:10:22.599Z,51.05
2023-04-02T03:11:22.541Z,50.43
2023-04-02T03:12:22.474Z,46.07
2023-04-02T03:13:22.408Z,43.08
2023-04-02T03:14:22.447Z,37.76
2023-04-02T03:15:22.376Z,33.23
2023-04-02T03:16:22.432Z,29.31
2023-04-02T03:17:22.350Z,30.16
2023-04-02T03:18:22.347Z,28.38
2023-04-02T03:19:22.353Z,27.22
2023-04-02T03:20:22.315Z,25.71
2023-04-02T03:21:22.282Z,26.57
2023-04-02T03:22:22.286Z,27.98
2023-04-02T03:23:22.260Z,25.00
2023-04-02T03:24:22.239Z,26.15
2023-04-02T03:25:22.249Z,25.21
2023-04-02T03:26:22.218Z,25.44
2023-04-02T03:27:22.191Z,25.77
2023-04-02T03:28:22.184Z,25.99
2023-04-02T03:29:22.181Z,26.30
2023-04-02T03:30:22.176Z,27.07
2023-04-02T03:31:22.212Z,28.47
2023-04-02T03:32:22.130Z,35.79
2023-04-02T03:33:22.098Z,34.55
2023-04-02T03:34:22.073Z,38.75
2023-04-02T03:35:22.033Z,36.41
2023-04-02T03:36:22.106Z,37.66
2023-04-02T03:37:21.977Z,39.22
2023-04-02T03:38:21.951Z,39.23
2023-04-02T03:39:21.892Z,44.06
2023-04-02T03:40:21.857Z,45.33
2023-04-02T03:41:21.809Z,44.56
2023-04-02T03:42:21.778Z,45.35
2023-04-02T03:43:21.706Z,46.37
2023-04-02T03:44:21.677Z,49.71
2023-04-02T03:45:21.604Z,49.98
2023-04-02T03:46:21.588Z,50.44
2023-04-02T03:47:21.543Z,52.07
2023-04-02T03:48:21.411Z,51.87
2023-04-02T03:49:21.336Z,56.25
2023-04-02T03:50:21.272Z,58.54
2023-04-02T03:51:21.215Z,57.65
2023-04-02T03:52:21.137Z,57.63
2023-04-02T03:53:21.084Z,60.59
2023-04-02T03:54:21.008Z,59.41
2023-04-02T03:55:20.935Z,64.48
2023-04-02T03:56:20.869Z,63.53
2023-04-02T03:57:20.813Z,64.37
2023-04-02T03:58:20.722Z,65.13
2023-04-02T03:59:20.657Z,65.13
2023-04-02T04:00:20.618Z,67.24
2023-04-02T04:01:20.537Z,58.74
2023-04-02T04:02:20.618Z,50.08
2023-04-02T04:03:20.391Z,43.90
2023-04-02T04:04:20.505Z,42.72
2023-04-02T04:05:20.258Z,37.77
2023-04-02T04:06:20.318Z,32.48
2023-04-02T04:07:20.124Z,31.76
2023-04-02T04:08:20.057Z,31.53
2023-04-02T04:09:19.999Z,27.61
2023-04-02T04:10:19.909Z,27.00
2023-04-02T04:11:19.861Z,25.24
2023-04-02T04:12:19.786Z,26.32
2023-04-02T04:13:19.754Z,28.01
2023-04-02T04:14:19.756Z,27.33
2023-04-02T04:15:19.727Z,26.97
2023-04-02T04:16:19.770Z,25.00
2023-04-02T04:17:19.683Z,25.31
2023-04-02T04:18:19.653Z,25.54
2023-04-02T04:19:19.633Z,26.91
2023-04-02T04:20:19.619Z,27.34
2023-04-02T04:21:19.617Z,25.72
2023-04-02T04:22:19.618Z,25.00
2023-04-02T04:23:19.579Z,25.45
2023-04-02T04:24:19.579Z,26.41
2023-04-02T04:25:19.543Z,30.96
2023-04-02T04:26:19.533Z,33.90
2023-04-02T04:27:19.510Z,36.34
2023-04-02T04:28:19.467Z,36.00
2023-04-02T04:29:19.450Z,38.84
2023-04-02T04:30:19.394Z,42.94
2023-04-02T04:31:19.440Z,44.69
2023-04-02T04:32:19.450Z,45.61
2023-04-02T04:33:19.283Z,48.13
2023-04-02T04:34:19.280Z,48.53
2023-04-02T04:35:19.197Z,52.98
2023-04-02T04:36:19.246Z,53.69
2023-04-02T04:37:19.099Z,56.05
2023-04-02T04:38:19.050Z,57.47
2023-04-02T04:39:19.010Z,58.44
2023-04-02T04:40:18.950Z,59.23
2023-04-02T04:41:18.932Z,61.49
2023-04-02T04:42:18.854Z,62.09
2023-04-02T04:43:18.787Z,62.61
2023-04-02T04:44:18.751Z,65.94
2023-04-02T04:45:18.716Z,66.94
2023-04-02T04:46:18.695Z,69.26
2023-04-02T04:47:18.629Z,69.25
2023-04-02T04:48:18.511Z,71.37
2023-04-02T04:49:18.457Z,72.67
2023-04-02T04:50:18.403Z,72.54
2023-04-02T04:51:18.348Z,76.72
2023-04-02T04:52:18.276Z,76.83
2023-04-02T04:53:18.228Z,76.85
2023-04-02T04:54:18.161Z,77.71
2023-04-02T04:55:18.083Z,79.82
2023-04-02T04:56:19.672Z,83.40
2023-04-02T04:57:18.006Z,82.37
2023-04-02T04:58:17.898Z,81.98
2023-04-02T04:59:17.826Z,82.92
2023-04-02T05:00:17.763Z,83.76
2023-04-02T05:01:17.700Z,86.52
2023-04-02T05:02:17.638Z,85.69
2023-04-02T05:03:17.564Z,86.08
2023-04-02T05:04:17.522Z,86.13
2023-04-02T05:05:17.435Z,86.58
2023-04-02T05:06:17.381Z,85.59
2023-04-02T05:07:17.297Z,78.27
2023-04-02T05:08:17.233Z,72.07
2023-04-02T05:09:17.203Z,70.66
2023-04-02T05:10:17.093Z,67.16
2023-04-02T05:11:17.033Z,67.53
2023-04-02T05:12:17.009Z,63.59
2023-04-02T05:13:16.942Z,65.55
2023-04-02T05:14:16.853Z,66.90
2023-04-02T05:15:16.795Z,65.53
2023-04-02T05:16:16.798Z,68.71
2023-04-02T05:17:16.678Z,65.97
2023-04-02T05:18:16.602Z,67.54
2023-04-02T05:19:16.541Z,70.56
2023-04-02T05:20:16.554Z,72.30
2023-04-02T05:21:16.410Z,72.44
2023-04-02T05:22:16.354Z,72.63
2023-04-02T05:23:16.305Z,74.30
2023-04-02T05:24:16.199Z,75.63
2023-04-02T05:25:16.132Z,76.99
2023-04-02T05:26:16.100Z,81.12
2023-04-02T05:27:16.018Z,81.02
2023-04-02T05:28:15.960Z,82.68
2023-04-02T05:29:15.870Z,80.67
2023-04-02T05:30:15.796Z,81.02
2023-04-02T05:31:15.745Z,81.70
2023-04-02T05:32:15.663Z,82.76
2023-04-02T05:33:15.591Z,84.04
2023-04-02T05:34:15.527Z,81.11
2023-04-02T05:35:15.456Z,82.29
2023-04-02T05:36:15.474Z,84.19
2023-04-02T05:37:15.358Z,88.56
2023-04-02T05:38:15.292Z,91.37
2023-04-02T05:39:15.199Z,90.89
2023-04-02T05:40:15.141Z,91.46
2023-04-02T05:41:15.066Z,94.53
2023-04-02T05:42:15.003Z,96.07
2023-04-02T05:43:14.940Z,95.13
2023-04-02T05:44:14.886Z,96.20
2023-04-02T05:45:14.795Z,98.47
2023-04-02T05:46:14.765Z,96.78
2023-04-02T05:47:14.668Z,98.80
2023-04-02T05:48:14.596Z,97.71
2023-04-02T05:49:14.520Z,97.20
2023-04-02T05:50:14.444Z,98.78
2023-04-02T05:51:14.390Z,99.02
2023-04-02T05:52:14.308Z,96.15
2023-04-02T05:53:14.230Z,95.09
2023-04-02T05:54:14.159Z,94.13
2023-04-02T05:55:14.098Z,94.35
2023-04-02T05:56:14.029Z,91.55
2023-04-02T05:57:14.058Z,90.30
2023-04-02T05:58:34.695Z,87.16
2023-04-02T05:59:14.845Z,87.28
2023-04-02T06:00:13.792Z,86.85
2023-04-02T06:01:13.714Z,86.82
2023-04-02T06:02:13.815Z,87.05
2023-04-02T06:03:13.770Z,81.98
2023-04-02T06:04:13.647Z,84.75
2023-04-02T06:05:13.465Z,81.39
2023-04-02T06:06:14.695Z,81.75
2023-04-02T06:07:13.330Z,79.57
2023-04-02T06:08:13.274Z,77.03
2023-04-02T06:09:13.202Z,76.75
2023-04-02T06:10:13.166Z,76.60
2023-04-02T06:11:13.085Z,74.93
2023-04-02T06:12:13.032Z,72.91
2023-04-02T06:13:12.959Z,70.18
2023-04-02T06:14:12.893Z,70.78
2023-04-02T06:15:12.835Z,74.88
2023-04-02T06:16:12.785Z,77.27
2023-04-02T06:17:12.677Z,76.03
2023-04-02T06:18:12.627Z,76.83
2023-04-02T06:19:12.564Z,77.01
2023-04-02T06:20:12.532Z,80.49
2023-04-02T06:21:12.498Z,82.46
2023-04-02T06:22:12.459Z,81.95
2023-04-02T06:23:12.432Z,83.86
2023-04-02T06:24:12.344Z,85.63
2023-04-02T06:25:12.296Z,85.33
2023-04-02T06:26:12.228Z,84.39
2023-04-02T06:27:12.161Z,84.77
2023-04-02T06:28:12.102Z,87.26
2023-04-02T06:29:12.033Z,87.92
2023-04-02T06:30:11.969Z,89.24
2023-04-02T06:31:11.936Z,92.48
2023-04-02T06:32:11.853Z,90.52
2023-04-02T06:33:11.798Z,88.76
2023-04-02T06:34:11.741Z,90.87
2023-04-02T06:35:11.664Z,90.69
2023-04-02T06:36:11.623Z,90.89
2023-04-02T06:37:11.533Z,92.38
2023-04-02T06:38:11.470Z,93.80
2023-04-02T06:39:11.376Z,93.91
2023-04-02T06:40:11.309Z,94.89
2023-04-02T06:41:11.239Z,95.25
2023-04-02T06:42:11.186Z,95.23
2023-04-02T06:43:11.096Z,95.25
2023-04-02T06:44:11.025Z,95.77
2023-04-02T06:45:10.942Z,92.19
2023-04-02T06:46:10.957Z,87.96
2023-04-02T06:47:10.809Z,88.05
2023-04-02T06:48:10.797Z,85.88
2023-04-02T06:49:10.702Z,78.24
2023-04-02T06:50:10.624Z,76.28
2023-04-02T06:51:10.548Z,70.26
2023-04-02T06:52:10.505Z,71.23
2023-04-02T06:53:10.433Z,68.84
2023-04-02T06:54:10.357Z,66.35
2023-04-02T06:55:10.339Z,65.96
2023-04-02T06:56:10.233Z,60.37
2023-04-02T06:57:10.182Z,60.52
2023-04-02T06:58:10.119Z,59.17
2023-04-02T06:59:10.036Z,54.48
2023-04-02T07:00:09.978Z,55.34
2023-04-02T07:01:09.937Z,55.91
2023-04-02T07:02:09.864Z,53.33
2023-04-02T07:03:09.859Z,53.88
2023-04-02T07:04:09.725Z,51.28
2023-04-02T07:05:09.742Z,50.91
2023-04-02T07:06:09.606Z,50.98
2023-04-02T07:07:09.569Z,48.00
2023-04-02T07:08:09.493Z,43.95
2023-04-02T07:09:09.424Z,37.56
2023-04-02T07:10:09.407Z,36.57
2023-04-02T07:11:09.298Z,33.89
2023-04-02T07:12:09.220Z,33.90
2023-04-02T07:13:09.161Z,27.88
2023-04-02T07:14:09.087Z,14.19
2023-04-02T07:15:09.028Z,7.39
2023-04-02T07:16:08.994Z,4.56
2023-04-02T07:17:08.881Z,0.58
2023-04-02T07:18:08.914Z,24.59
2023-04-02T07:19:08.768Z,27.90
2023-04-02T07:20:08.707Z,25.00
2023-04-02T07:21:08.641Z,25.59
2023-04-02T07:22:08.570Z,28.89
2023-04-02T07:23:08.516Z,24.44
2023-04-02T07:24:08.459Z,25.89
2023-04-02T07:25:08.377Z,25.72
2023-04-02T07:26:08.320Z,25.00
2023-04-02T07:27:08.255Z,26.98
2023-04-02T07:28:08.192Z,27.81
2023-04-02T07:29:08.103Z,32.14
2023-04-02T07:30:08.037Z,26.55
2023-04-02T07:31:07.998Z,26.47
2023-04-02T07:32:07.946Z,29.48
2023-04-02T07:33:07.924Z,25.62
2023-04-02T07:34:07.777Z,25.82
2023-04-02T07:35:07.722Z,27.63
2023-04-02T07:36:07.729Z,25.32
2023-04-02T07:37:07.628Z,26.15
2023-04-02T07:38:07.563Z,26.24
2023-04-02T07:39:07.487Z,19.08
2023-04-02T07:40:07.418Z,13.59
2023-04-02T07:41:07.368Z,11.87
2023-04-02T07:42:07.285Z,6.72
2023-04-02T07:43:07.216Z,19.82
2023-04-02T07:44:07.138Z,25.91
2023-04-02T07:45:07.091Z,25.00
2023-04-02T07:46:07.017Z,25.01
2023-04-02T07:47:07.134Z,18.22
2023-04-02T07:48:06.947Z,11.34
2023-04-02T07:49:06.817Z,8.16
2023-04-02T07:50:06.755Z,0.00
2023-04-02T07:51:06.699Z,0.00
2023-04-02T07:52:06.632Z,11.41
2023-04-02T07:53:06.570Z,25.71
2023-04-02T07:54:06.499Z,25.00
2023-04-02T07:55:06.410Z,25.24
2023-04-02T07:56:06.360Z,20.48
2023-04-02T07:57:06.349Z,15.81
2023-04-02T07:58:06.239Z,12.02
2023-04-02T07:59:06.173Z,7.03
2023-04-02T08:00:06.064Z,2.73
2023-04-02T08:01:06.001Z,0.00
2023-04-02T08:02:06.081Z,0.00
2023-04-02T08:03:05.963Z,0.00
2023-04-02T08:04:05.835Z,0.00
2023-04-02T08:05:05.745Z,6.28
2023-04-02T08:06:05.658Z,15.68
2023-04-02T08:07:05.595Z,23.69
2023-04-02T08:08:05.542Z,26.89
2023-04-02T08:09:05.517Z,25.00
2023-04-02T08:10:05.479Z,25.38
2023-04-02T08:11:05.471Z,26.37
2023-04-02T08:12:05.473Z,25.00
2023-04-02T08:13:05.474Z,25.00
2023-04-02T08:14:05.471Z,25.34
2023-04-02T08:15:05.494Z,25.08
2023-04-02T08:16:05.474Z,25.00
2023-04-02T08:17:05.448Z,25.00
2023-04-02T08:18:05.457Z,25.65
2023-04-02T08:19:05.443Z,25.25
2023-04-02T08:20:05.427Z,25.00
2023-04-02T08:21:05.421Z,26.09
2023-04-02T08:22:05.410Z,25.07
2023-04-02T08:23:05.416Z,25.32
2023-04-02T08:24:05.403Z,25.00
2023-04-02T08:25:05.386Z,27.03
2023-04-02T08:26:05.369Z,30.76
2023-04-02T08:27:05.369Z,31.27
2023-04-02T08:28:05.357Z,35.06
2023-04-02T08:29:05.344Z,30.05
2023-04-02T08:30:05.314Z,31.18
2023-04-02T08:31:05.381Z,27.85
2023-04-02T08:32:05.264Z,28.66
2023-04-02T08:33:05.270Z,25.02
2023-04-02T08:34:05.229Z,25.00
2023-04-02T08:35:05.295Z,27.07
2023-04-02T08:36:05.229Z,31.96
2023-04-02T08:37:05.166Z,36.21
2023-04-02T08:38:05.138Z,36.81
2023-04-02T08:39:05.113Z,45.64
2023-04-02T08:40:05.090Z,49.58
2023-04-02T08:41:05.047Z,51.68
2023-04-02T08:42:05.016Z,54.42
2023-04-02T08:43:04.967Z,57.40
2023-04-02T08:44:04.946Z,60.51
2023-04-02T08:45:20.853Z,66.55
2023-04-02T08:46:05.865Z,66.67
2023-04-02T08:47:04.740Z,67.52
2023-04-02T08:48:04.706Z,70.44
2023-04-02T08:49:04.582Z,76.98
2023-04-02T08:50:04.506Z,87.64
2023-04-02T08:51:04.436Z,91.03
2023-04-02T08:52:04.364Z,94.02
2023-04-02T08:53:04.288Z,96.46
2023-04-02T08:54:04.236Z,98.78
2023-04-02T08:55:04.131Z,102.79
2023-04-02T08:56:04.051Z,105.61
2023-04-02T08:57:03.997Z,107.67
2023-04-02T08:58:03.989Z,111.20
2023-04-02T08:59:03.852Z,111.97
2023-04-02T09:00:03.777Z,114.02
2023-04-02T09:01:03.662Z,117.23
2023-04-02T09:02:03.690Z,120.76
2023-04-02T09:03:03.560Z,123.00
2023-04-02T09:04:03.440Z,125.62
2023-04-02T09:05:03.422Z,126.69
2023-04-02T09:06:03.344Z,129.07
2023-04-02T09:07:03.309Z,130.67
2023-04-02T09:08:03.282Z,134.14
2023-04-02T09:09:03.199Z,135.89
2023-04-02T09:10:03.849Z,137.55
2023-04-02T09:11:03.094Z,139.01
2023-04-02T09:12:03.052Z,141.89
2023-04-02T09:13:02.982Z,143.69
2023-04-02T09:14:02.944Z,145.92
2023-04-02T09:15:02.879Z,150.17
2023-04-02T09:16:02.886Z,150.29
2023-04-02T09:17:02.776Z,152.60
2023-04-02T09:18:02.877Z,153.64
2023-04-02T09:19:02.657Z,156.17
2023-04-02T09:20:02.610Z,158.61
2023-04-02T09:21:02.553Z,161.58
2023-04-02T09:22:02.479Z,162.86
2023-04-02T09:23:03.369Z,165.22
2023-04-02T09:24:04.679Z,166.19
2023-04-02T09:25:02.307Z,167.33
2023-04-02T09:26:04.864Z,170.13
2023-04-02T09:27:02.143Z,170.22
2023-04-02T09:28:02.055Z,170.75
2023-04-02T09:29:01.990Z,172.07
2023-04-02T09:30:01.914Z,173.66
2023-04-02T09:31:01.847Z,178.05
2023-04-02T09:32:01.801Z,179.55
2023-04-02T09:33:01.735Z,180.93
2023-04-02T09:34:01.628Z,181.72
2023-04-02T09:35:01.716Z,182.71
2023-04-02T09:36:01.499Z,184.95
2023-04-02T09:37:01.381Z,186.17
2023-04-02T09:38:01.286Z,186.50
2023-04-02T09:39:01.214Z,186.65
2023-04-02T09:40:01.152Z,187.18
2023-04-02T09:41:01.050Z,188.50
2023-04-02T09:42:05.790Z,190.31
2023-04-02T09:43:01.906Z,186.76
2023-04-02T09:44:00.813Z,187.82
2023-04-02T09:45:00.750Z,189.94
2023-04-02T09:46:00.659Z,193.18
2023-04-02T09:47:00.694Z,196.59
2023-04-02T09:48:00.527Z,197.32
2023-04-02T09:49:00.415Z,198.77
2023-04-02T09:50:00.372Z,200.68
2023-04-02T09:51:00.271Z,200.44
2023-04-02T09:52:00.178Z,201.00
2023-04-02T09:53:00.126Z,201.34
2023-04-02T09:54:00.035Z,202.47
2023-04-02T09:54:59.947Z,203.53
2023-04-02T09:55:59.856Z,203.65
2023-04-02T09:56:59.786Z,203.91
2023-04-02T09:58:02.049Z,204.16
2023-04-02T09:58:59.612Z,206.03
2023-04-02T09:59:59.547Z,205.62
2023-04-02T10:00:59.478Z,209.63
2023-04-02T10:01:59.397Z,208.63
2023-04-02T10:02:59.414Z,209.03
2023-04-02T10:03:59.355Z,209.51
2023-04-02T10:04:59.143Z,209.51
2023-04-02T10:05:59.064Z,210.96
2023-04-02T10:06:59.009Z,211.74
2023-04-02T10:07:58.929Z,211.14
2023-04-02T10:08:58.840Z,211.83
2023-04-02T10:09:58.767Z,211.60
2023-04-02T10:10:58.693Z,213.40
2023-04-02T10:11:58.598Z,214.35
2023-04-02T10:12:58.528Z,210.83
2023-04-02T10:13:58.446Z,213.40
2023-04-02T10:14:58.371Z,214.16
2023-04-02T10:15:58.298Z,214.27
2023-04-02T10:16:58.318Z,215.18
2023-04-02T10:17:58.153Z,215.38
2023-04-02T10:18:58.042Z,215.42
2023-04-02T10:19:57.968Z,215.42
2023-04-02T10:20:57.871Z,215.56
2023-04-02T10:21:57.793Z,214.97
2023-04-02T10:22:57.692Z,216.02
2023-04-02T10:23:57.595Z,215.95
2023-04-02T10:24:57.523Z,215.31
2023-04-02T10:25:57.431Z,216.04
2023-04-02T10:26:57.351Z,213.53
2023-04-02T10:27:57.268Z,214.91
2023-04-02T10:28:57.196Z,212.90
2023-04-02T10:29:57.129Z,214.67
2023-04-02T10:30:57.042Z,212.63
2023-04-02T10:31:56.989Z,214.39
2023-04-02T10:32:56.892Z,214.21
2023-04-02T10:33:56.799Z,214.46
2023-04-02T10:34:56.702Z,212.53
2023-04-02T10:35:56.653Z,213.43
2023-04-02T10:36:56.536Z,212.52
2023-04-02T10:37:56.465Z,213.59
2023-04-02T10:38:56.383Z,211.26
2023-04-02T10:39:56.297Z,212.53
2023-04-02T10:40:57.093Z,212.31
2023-04-02T10:41:56.130Z,212.36
2023-04-02T10:42:56.045Z,210.83
2023-04-02T10:43:57.846Z,211.97
2023-04-02T10:44:55.903Z,212.34
2023-04-02T10:45:55.802Z,210.44
2023-04-02T10:46:55.690Z,206.97
2023-04-02T10:47:56.418Z,207.53
2023-04-02T10:48:55.525Z,210.04
2023-04-02T10:49:55.433Z,206.43
2023-04-02T10:50:55.364Z,208.68
2023-04-02T10:51:55.276Z,208.01
2023-04-02T10:52:56.518Z,209.60
2023-04-02T10:53:55.093Z,209.92
2023-04-02T10:54:55.033Z,208.71
2023-04-02T10:55:54.970Z,208.87
2023-04-02T10:56:54.911Z,209.36
2023-04-02T10:57:54.760Z,210.09
2023-04-02T10:58:57.257Z,211.44
2023-04-02T10:59:54.601Z,212.64
2023-04-02T11:00:54.530Z,214.45
2023-04-02T11:01:54.464Z,213.76
2023-04-02T11:02:54.501Z,211.75
2023-04-02T11:03:55.848Z,214.39
2023-04-02T11:04:56.757Z,214.46
2023-04-02T11:05:54.139Z,214.45
2023-04-02T11:07:00.824Z,214.68
2023-04-02T11:07:54.942Z,214.53
2023-04-02T11:08:53.857Z,214.62
2023-04-02T11:09:53.750Z,214.83
2023-04-02T11:10:53.735Z,214.39
2023-04-02T11:11:53.630Z,213.96
2023-04-02T11:12:53.503Z,213.48
2023-04-02T11:13:53.420Z,211.78
2023-04-02T11:14:53.334Z,211.91
2023-04-02T11:15:53.266Z,212.02
2023-04-02T11:16:53.159Z,210.28
2023-04-02T11:17:53.127Z,209.29
2023-04-02T11:18:52.997Z,208.02
2023-04-02T11:19:52.908Z,207.62
2023-04-02T11:20:52.823Z,208.12
2023-04-02T11:21:59.737Z,206.84
2023-04-02T11:22:53.628Z,206.97
2023-04-02T11:23:52.542Z,207.20
2023-04-02T11:24:52.454Z,207.73
2023-04-02T11:25:52.377Z,207.82
2023-04-02T11:26:52.284Z,207.03
2023-04-02T11:27:52.210Z,208.33
2023-04-02T11:28:52.118Z,203.27
2023-04-02T11:29:52.088Z,205.71
2023-04-02T11:30:51.964Z,205.04
2023-04-02T11:31:51.952Z,204.97
2023-04-02T11:32:51.868Z,204.83
2023-04-02T11:33:51.746Z,203.44
2023-04-02T11:34:59.535Z,205.67
2023-04-02T11:35:52.599Z,205.75
2023-04-02T11:36:51.443Z,205.86
2023-04-02T11:37:51.361Z,206.22
2023-04-02T11:38:52.388Z,207.14
2023-04-02T11:39:51.227Z,208.17
2023-04-02T11:40:51.130Z,208.82
2023-04-02T11:41:51.073Z,208.45
2023-04-02T11:42:50.952Z,208.90
2023-04-02T11:43:50.907Z,209.17
2023-04-02T11:44:50.792Z,208.96
2023-04-02T11:45:53.196Z,209.38
2023-04-02T11:46:50.653Z,209.02
2023-04-02T11:47:50.614Z,206.67
2023-04-02T11:48:50.487Z,206.45
2023-04-02T11:49:50.401Z,204.47
2023-04-02T11:50:50.326Z,203.46
2023-04-02T11:51:52.399Z,203.99
2023-04-02T11:52:51.180Z,203.69
2023-04-02T11:53:50.068Z,202.17
2023-04-02T11:54:49.986Z,200.34
2023-04-02T11:55:49.920Z,200.39
2023-04-02T11:56:49.855Z,198.94
2023-04-02T11:57:49.780Z,198.43
2023-04-02T11:58:49.680Z,196.96
2023-04-02T11:59:49.584Z,197.05
2023-04-02T12:00:49.510Z,197.08
2023-04-02T12:01:49.448Z,197.64
2023-04-02T12:02:49.400Z,196.03
2023-04-02T12:03:49.274Z,196.19
2023-04-02T12:04:49.259Z,194.58
2023-04-02T12:05:49.123Z,193.71
2023-04-02T12:06:49.052Z,193.97
2023-04-02T12:07:48.975Z,193.46
2023-04-02T12:08:57.628Z,192.47
2023-04-02T12:09:49.806Z,192.50
2023-04-02T12:10:48.724Z,190.96
2023-04-02T12:11:49.878Z,191.45
2023-04-02T12:12:48.572Z,189.46
2023-04-02T12:13:48.485Z,188.71
2023-04-02T12:14:48.421Z,189.41
2023-04-02T12:15:48.394Z,188.21
2023-04-02T12:16:48.290Z,188.06
2023-04-02T12:17:48.192Z,188.56
2023-04-02T12:18:48.104Z,187.32
2023-04-02T12:19:48.073Z,188.27
2023-04-02T12:20:48.005Z,187.98
2023-04-02T12:21:47.936Z,188.82
2023-04-02T12:22:47.870Z,189.40
2023-04-02T12:23:47.826Z,189.54
2023-04-02T12:24:47.789Z,189.84
2023-04-02T12:25:47.710Z,189.84
2023-04-02T12:26:47.735Z,191.91
2023-04-02T12:27:47.606Z,193.13
2023-04-02T12:28:47.538Z,193.57
2023-04-02T12:29:47.474Z,194.51
2023-04-02T12:30:47.443Z,194.61
2023-04-02T12:31:47.375Z,196.59
2023-04-02T12:32:47.339Z,197.79
2023-04-02T12:33:47.273Z,198.91
2023-04-02T12:34:47.217Z,199.43
2023-04-02T12:35:47.162Z,200.99
2023-04-02T12:36:47.105Z,201.31
2023-04-02T12:37:47.056Z,200.65
2023-04-02T12:38:46.991Z,202.10
2023-04-02T12:39:46.927Z,202.86